Time;durP1;ratioP1;P1;durP2;ratioP2;P2;SDS_P1;SDS_P2;PMS_P1;PMS_P2;Temp;Humidity;BMP_temperature;BMP_pressure;BME280_temperature;BME280_humidity;BME280_pressure;Samples;Min_cycle;Max_cycle;Signal;HPM_P1;HPM_P2
2021/11/24 00:00:53;;;;;;;165.13;46.50;;;7.00;86.10;;;;;;5048447;28;20391;-78
2021/11/24 00:03:19;;;;;;;164.43;46.17;;;7.00;87.20;;;;;;5047051;28;20474;-76
2021/11/24 00:05:44;;;;;;;164.23;46.10;;;6.90;88.00;;;;;;5048438;28;20434;-78
2021/11/24 00:08:10;;;;;;;170.65;47.92;;;7.00;87.70;;;;;;5041330;28;20407;-79
2021/11/24 00:10:36;;;;;;;181.32;47.90;;;7.00;87.60;;;;;;5045326;28;20522;-78
2021/11/24 00:13:04;;;;;;;183.10;47.23;;;7.00;87.10;;;;;;5041545;28;20379;-77
2021/11/24 00:15:30;;;;;;;180.48;47.50;;;6.90;87.10;;;;;;5039973;28;20887;-79
2021/11/24 00:17:56;;;;;;;155.80;47.42;;;6.90;87.80;;;;;;5045351;28;20462;-77
2021/11/24 00:20:22;;;;;;;167.50;47.83;;;7.00;87.30;;;;;;5043338;28;20402;-77
2021/11/24 00:22:47;;;;;;;164.15;48.10;;;6.90;87.90;;;;;;5044216;28;20473;-77
2021/11/24 00:25:13;;;;;;;167.10;48.83;;;6.90;87.80;;;;;;5043204;28;20391;-78
2021/11/24 00:27:39;;;;;;;158.20;47.83;;;7.00;88.50;;;;;;5044079;28;20466;-80
2021/11/24 00:30:06;;;;;;;167.80;46.80;;;7.00;88.10;;;;;;5039957;28;20391;-78
2021/11/24 00:32:32;;;;;;;185.80;47.70;;;7.00;87.70;;;;;;5038347;28;20478;-79
2021/11/24 00:34:57;;;;;;;175.55;47.72;;;7.00;87.50;;;;;;5039746;28;20410;-78
2021/11/24 00:37:23;;;;;;;173.30;46.80;;;7.00;87.60;;;;;;5039018;28;20383;-78
2021/11/24 00:39:49;;;;;;;179.87;48.20;;;6.90;87.10;;;;;;5045857;28;20394;-79
2021/11/24 00:42:15;;;;;;;170.63;47.45;;;6.90;87.50;;;;;;5043559;28;20433;-78
2021/11/24 00:44:41;;;;;;;170.90;47.30;;;7.00;88.90;;;;;;5040212;28;20391;-77
2021/11/24 00:47:08;;;;;;;181.83;46.87;;;6.90;87.80;;;;;;5049651;28;20429;-76
2021/11/24 00:49:35;;;;;;;161.10;45.28;;;7.00;86.70;;;;;;5049544;28;20395;-77
2021/11/24 00:52:00;;;;;;;166.63;46.53;;;7.00;86.50;;;;;;5049216;28;20391;-78
2021/11/24 00:54:26;;;;;;;151.20;44.83;;;7.00;85.80;;;;;;5050441;28;20417;-76
2021/11/24 00:56:52;;;;;;;156.73;47.87;;;7.00;85.60;;;;;;5042013;28;20448;-79
2021/11/24 00:59:17;;;;;;;178.73;48.27;;;7.00;86.30;;;;;;5037645;28;20384;-78
2021/11/24 01:01:43;;;;;;;167.40;47.57;;;7.10;85.40;;;;;;5034250;28;20401;-76
2021/11/24 01:04:08;;;;;;;171.03;48.30;;;7.00;85.30;;;;;;5044046;28;20510;-76
2021/11/24 01:06:34;;;;;;;195.13;49.67;;;7.10;85.20;;;;;;5041377;28;20395;-77
2021/11/24 01:09:00;;;;;;;175.38;48.42;;;7.00;85.50;;;;;;5038604;28;20478;-77
2021/11/24 01:11:25;;;;;;;171.13;49.13;;;7.00;86.00;;;;;;5038148;28;20398;-77
2021/11/24 01:13:51;;;;;;;164.32;46.92;;;7.00;86.50;;;;;;5040797;28;20394;-75
2021/11/24 01:16:17;;;;;;;184.82;49.72;;;7.00;86.90;;;;;;5042284;28;20383;-76
2021/11/24 01:18:42;;;;;;;169.75;50.00;;;7.00;87.20;;;;;;5041496;28;20437;-77
2021/11/24 01:21:08;;;;;;;177.10;49.30;;;7.00;87.30;;;;;;5041732;28;20455;-77
2021/11/24 01:23:34;;;;;;;177.37;48.33;;;7.00;87.10;;;;;;5046217;28;20387;-78
2021/11/24 01:25:59;;;;;;;184.90;48.78;;;7.00;86.80;;;;;;5044247;28;20456;-77
2021/11/24 01:28:27;;;;;;;170.93;47.70;;;7.00;87.20;;;;;;5040334;28;20472;-77
2021/11/24 01:30:52;;;;;;;189.82;48.30;;;7.00;87.30;;;;;;5046804;28;20398;-76
2021/11/24 01:33:18;;;;;;;178.63;48.30;;;7.10;87.50;;;;;;5035677;28;20399;-78
2021/11/24 01:35:44;;;;;;;191.20;47.20;;;7.00;86.80;;;;;;5035084;28;20414;-76
2021/11/24 01:38:10;;;;;;;176.07;48.30;;;7.00;86.70;;;;;;5032524;28;20402;-77
2021/11/24 01:40:35;;;;;;;165.07;49.38;;;7.00;86.80;;;;;;5031532;28;20876;-76
2021/11/24 01:43:01;;;;;;;183.23;49.10;;;7.00;87.20;;;;;;5031493;28;20399;-77
2021/11/24 01:45:27;;;;;;;176.40;48.03;;;7.00;87.20;;;;;;5031942;28;20395;-76
2021/11/24 01:47:53;;;;;;;165.77;46.63;;;7.20;85.80;;;;;;5031515;28;20407;-77
2021/11/24 01:50:20;;;;;;;185.98;47.20;;;7.20;85.40;;;;;;5032014;28;20387;-77
2021/11/24 01:52:46;;;;;;;171.37;47.13;;;7.10;84.80;;;;;;5031836;28;20419;-78
2021/11/24 01:55:13;;;;;;;164.68;47.80;;;7.10;85.40;;;;;;5030505;28;20430;-77
2021/11/24 01:57:41;;;;;;;186.70;47.42;;;7.00;86.30;;;;;;5031410;28;20718;-76
2021/11/24 02:00:08;;;;;;;173.65;45.13;;;7.00;87.00;;;;;;5031395;28;20387;-75
2021/11/24 02:02:34;;;;;;;177.68;47.75;;;7.00;87.40;;;;;;5031827;28;20375;-79
2021/11/24 02:04:59;;;;;;;177.65;46.13;;;6.90;87.80;;;;;;5032851;28;20387;-76
2021/11/24 02:07:25;;;;;;;161.07;46.60;;;6.90;88.20;;;;;;5041057;28;20407;-75
2021/11/24 02:09:50;;;;;;;168.87;44.43;;;7.00;88.50;;;;;;5041644;28;20379;-77
2021/11/24 02:12:16;;;;;;;163.17;44.40;;;7.00;87.20;;;;;;5031611;28;20425;-77
2021/11/24 02:14:44;;;;;;;165.57;44.80;;;6.90;86.70;;;;;;5031623;28;20443;-76
2021/11/24 02:17:10;;;;;;;145.23;42.65;;;6.90;87.10;;;;;;5030006;28;20391;-76
2021/11/24 02:19:36;;;;;;;149.65;44.63;;;6.90;87.50;;;;;;5031184;28;20387;-76
2021/11/24 02:22:03;;;;;;;158.18;43.70;;;7.00;86.30;;;;;;5029458;28;20391;-76
2021/11/24 02:24:35;;;;;;;154.75;43.13;;;6.90;85.90;;;;;;5034461;28;20876;-76
2021/11/24 02:27:04;;;;;;;151.65;44.10;;;6.90;87.00;;;;;;5034761;28;20789;-77
2021/11/24 02:29:30;;;;;;;150.50;42.60;;;6.90;87.60;;;;;;5034754;28;20396;-77
2021/11/24 02:31:57;;;;;;;142.30;42.03;;;7.00;89.50;;;;;;5036614;28;20418;-77
2021/11/24 02:34:24;;;;;;;154.82;41.67;;;7.10;84.00;;;;;;5036928;28;20833;-78
2021/11/24 02:36:50;;;;;;;133.10;42.37;;;7.10;83.90;;;;;;5033601;28;20486;-77
2021/11/24 02:39:16;;;;;;;143.02;40.88;;;7.10;83.90;;;;;;5033865;28;20473;-76
2021/11/24 02:41:42;;;;;;;141.88;42.40;;;7.10;83.50;;;;;;5033960;28;20449;-76
2021/11/24 02:44:24;;;;;;;139.55;42.70;;;7.00;84.00;;;;;;5034852;28;20410;-76
2021/11/24 02:46:52;;;;;;;126.88;39.97;;;7.10;84.60;;;;;;5035270;28;20884;-76
2021/11/24 02:49:18;;;;;;;118.40;41.20;;;7.10;83.70;;;;;;5031929;28;20399;-77
2021/11/24 02:51:44;;;;;;;138.30;40.25;;;7.00;84.80;;;;;;5032694;28;20426;-77
2021/11/24 02:54:11;;;;;;;124.03;40.83;;;7.00;85.60;;;;;;5034681;28;20434;-77
2021/11/24 02:56:38;;;;;;;129.23;40.72;;;7.00;85.50;;;;;;5035867;28;20460;-77
2021/11/24 02:59:04;;;;;;;123.80;38.90;;;7.00;85.40;;;;;;5034392;28;20377;-76
2021/11/24 03:01:30;;;;;;;111.60;39.10;;;7.00;84.80;;;;;;5035171;28;20455;-77
2021/11/24 03:03:55;;;;;;;125.63;38.40;;;7.00;83.90;;;;;;5033941;28;20422;-77
2021/11/24 03:06:21;;;;;;;117.93;37.10;;;7.10;82.70;;;;;;5035481;28;20817;-77
2021/11/24 03:08:46;;;;;;;110.33;38.07;;;7.00;81.40;;;;;;5037253;28;20390;-77
2021/11/24 03:11:12;;;;;;;117.80;38.23;;;7.00;82.10;;;;;;5034447;28;20379;-77
2021/11/24 03:13:38;;;;;;;111.23;38.10;;;7.00;82.00;;;;;;5043530;28;20926;-77
2021/11/24 03:16:04;;;;;;;117.47;37.83;;;6.90;82.60;;;;;;5054433;28;20462;-76
2021/11/24 03:18:29;;;;;;;104.20;36.80;;;6.90;83.50;;;;;;5055813;28;20466;-76
2021/11/24 03:20:55;;;;;;;109.03;36.17;;;6.90;82.50;;;;;;5037063;28;20875;-76
2021/11/24 03:23:20;;;;;;;110.43;36.97;;;6.90;82.40;;;;;;5033627;28;20545;-76
2021/11/24 03:25:46;;;;;;;111.00;37.27;;;7.00;82.30;;;;;;5039008;28;20413;-77
2021/11/24 03:28:11;;;;;;;109.60;37.63;;;6.90;82.40;;;;;;5033959;28;20383;-77
2021/11/24 03:30:39;;;;;;;110.47;36.90;;;6.90;83.00;;;;;;5032695;28;20528;-77
2021/11/24 03:33:05;;;;;;;107.47;36.28;;;6.90;82.30;;;;;;5033048;28;20380;-77
2021/11/24 03:35:32;;;;;;;93.95;36.60;;;7.00;82.10;;;;;;5030909;28;20415;-77
2021/11/24 03:37:59;;;;;;;106.15;35.47;;;6.90;82.30;;;;;;5033310;28;20473;-77
2021/11/24 03:40:28;;;;;;;90.90;33.87;;;7.00;82.50;;;;;;5033113;28;20380;-77
2021/11/24 03:42:54;;;;;;;97.47;34.42;;;7.10;80.50;;;;;;5032979;28;20376;-77
2021/11/24 03:45:24;;;;;;;93.55;33.75;;;7.00;78.90;;;;;;5033170;28;21375;-77
2021/11/24 03:47:51;;;;;;;91.70;34.80;;;6.90;80.10;;;;;;5035425;28;20395;-76
2021/11/24 03:50:17;;;;;;;98.20;35.03;;;6.90;80.60;;;;;;5038083;28;20457;-77
2021/11/24 03:52:43;;;;;;;96.90;35.07;;;7.00;80.20;;;;;;5037464;28;20391;-76
2021/11/24 03:55:10;;;;;;;98.63;35.60;;;6.90;80.20;;;;;;5041224;28;20508;-76
2021/11/24 03:57:36;;;;;;;98.47;34.58;;;7.00;79.50;;;;;;5033515;28;20897;-76
2021/11/24 04:00:05;;;;;;;102.50;37.07;;;6.90;78.90;;;;;;5032705;28;20551;-76
2021/11/24 04:02:31;;;;;;;106.43;36.58;;;7.00;79.60;;;;;;5033682;28;20446;-76
2021/11/24 04:04:56;;;;;;;107.22;38.08;;;7.00;79.20;;;;;;5033155;28;20410;-77
2021/11/24 04:07:22;;;;;;;113.10;37.38;;;7.00;78.40;;;;;;5032708;28;20399;-76
2021/11/24 04:09:47;;;;;;;112.15;38.33;;;7.00;79.00;;;;;;5032435;28;20394;-76
2021/11/24 04:12:13;;;;;;;110.68;39.53;;;6.90;80.10;;;;;;5032925;28;20478;-77
2021/11/24 04:14:39;;;;;;;113.90;42.13;;;6.90;80.50;;;;;;5037112;28;20419;-76
2021/11/24 04:17:04;;;;;;;110.57;41.43;;;6.90;81.20;;;;;;5041202;28;20390;-80
2021/11/24 04:19:30;;;;;;;116.73;39.03;;;6.90;81.20;;;;;;5041375;28;20403;-78
2021/11/24 04:21:55;;;;;;;126.37;41.37;;;6.90;81.20;;;;;;5039809;28;20396;-79
2021/11/24 04:24:21;;;;;;;126.87;43.70;;;7.00;81.00;;;;;;5040758;28;20375;-79
2021/11/24 04:26:47;;;;;;;140.33;42.10;;;7.00;80.00;;;;;;5037342;28;20756;-77
2021/11/24 04:29:12;;;;;;;123.93;41.30;;;7.00;79.80;;;;;;5037659;28;20394;-78
2021/11/24 04:31:38;;;;;;;123.20;41.20;;;7.00;80.10;;;;;;5035699;28;20414;-78
2021/11/24 04:34:03;;;;;;;119.95;40.08;;;7.00;80.90;;;;;;5040320;28;20423;-78
2021/11/24 04:36:29;;;;;;;120.10;40.50;;;7.00;80.70;;;;;;5042083;28;20392;-77
2021/11/24 04:38:55;;;;;;;110.15;39.67;;;7.00;80.30;;;;;;5052085;28;20402;-79
2021/11/24 04:41:20;;;;;;;124.28;41.17;;;7.00;80.10;;;;;;5051754;28;20407;-77
2021/11/24 04:43:47;;;;;;;125.60;41.78;;;7.10;80.70;;;;;;5054384;28;20429;-78
2021/11/24 04:46:16;;;;;;;122.07;41.57;;;7.00;80.90;;;;;;5043317;28;20426;-78
2021/11/24 04:48:42;;;;;;;135.45;43.22;;;7.00;80.90;;;;;;5038762;28;20392;-79
2021/11/24 04:51:08;;;;;;;130.23;42.03;;;7.10;80.50;;;;;;5036184;28;20406;-79
2021/11/24 04:53:34;;;;;;;129.30;42.20;;;7.10;80.00;;;;;;5034849;28;20382;-78
2021/11/24 04:56:00;;;;;;;128.40;41.43;;;7.10;80.00;;;;;;5035971;28;20406;-78
2021/11/24 04:58:26;;;;;;;137.95;43.20;;;7.10;81.00;;;;;;5036201;28;20383;-77
2021/11/24 05:00:52;;;;;;;120.70;40.40;;;7.10;81.30;;;;;;5036258;28;20383;-79
2021/11/24 05:03:17;;;;;;;120.88;39.72;;;7.10;81.40;;;;;;5036568;28;20470;-78
2021/11/24 05:05:43;;;;;;;109.23;38.73;;;7.20;81.90;;;;;;5035945;28;20455;-78
2021/11/24 05:08:09;;;;;;;129.03;42.93;;;7.20;82.00;;;;;;5035231;28;20395;-79
2021/11/24 05:10:34;;;;;;;126.77;39.90;;;7.40;79.00;;;;;;5036991;28;20490;-77
2021/11/24 05:13:00;;;;;;;118.00;39.73;;;7.30;78.60;;;;;;5036132;28;20422;-78
2021/11/24 05:15:31;;;;;;;118.45;38.00;;;7.20;79.00;;;;;;5033708;28;20414;-79
2021/11/24 05:18:04;;;;;;;117.80;39.63;;;7.20;79.50;;;;;;5036621;28;20404;-79
2021/11/24 05:20:31;;;;;;;131.30;40.75;;;7.20;80.00;;;;;;5035917;28;20734;-77
2021/11/24 05:23:02;;;;;;;126.53;40.00;;;7.30;80.00;;;;;;5046910;28;20393;-77
2021/11/24 05:25:28;;;;;;;127.65;39.03;;;7.40;76.50;;;;;;5042836;28;20388;-78
2021/11/24 05:27:54;;;;;;;117.10;38.65;;;7.30;76.60;;;;;;5036934;28;20395;-78
2021/11/24 05:30:21;;;;;;;114.85;40.70;;;7.30;77.70;;;;;;5037114;28;20399;-79
2021/11/24 05:32:47;;;;;;;122.50;41.07;;;7.20;78.20;;;;;;5038604;28;20413;-79
2021/11/24 05:35:13;;;;;;;108.88;37.60;;;7.30;79.60;;;;;;5035140;28;20410;-79
2021/11/24 05:37:38;;;;;;;110.00;37.37;;;7.30;78.80;;;;;;5035314;28;20414;-79
2021/11/24 05:40:04;;;;;;;105.17;36.73;;;7.40;78.00;;;;;;5035064;28;20748;-77
2021/11/24 05:42:30;;;;;;;123.78;39.30;;;7.40;77.50;;;;;;5033611;28;20914;-77
2021/11/24 05:48:08;;;;;;;115.45;39.67;;;7.20;78.70;;;;;;4974400;28;21056;-79
2021/11/24 05:50:33;;;;;;;100.85;36.97;;;7.20;78.90;;;;;;4973961;28;20396;-78
2021/11/24 05:52:59;;;;;;;113.53;37.15;;;7.20;79.90;;;;;;4997699;28;20879;-79
2021/11/24 05:55:25;;;;;;;103.10;36.38;;;7.20;80.20;;;;;;5035940;28;20414;-79
2021/11/24 05:57:51;;;;;;;107.07;36.70;;;7.20;81.20;;;;;;5037819;28;20403;-77
2021/11/24 06:00:17;;;;;;;100.40;34.73;;;7.20;81.40;;;;;;5047815;28;20397;-76
2021/11/24 06:02:43;;;;;;;93.63;35.22;;;7.20;80.40;;;;;;5042701;28;20390;-78
2021/11/24 06:05:10;;;;;;;87.32;34.60;;;7.20;80.70;;;;;;5040005;28;20382;-78
2021/11/24 06:07:36;;;;;;;100.00;36.95;;;7.20;80.90;;;;;;5036992;28;20447;-78
2021/11/24 06:10:04;;;;;;;99.77;36.27;;;7.20;79.90;;;;;;5034769;28;20445;-78
2021/11/24 06:12:29;;;;;;;99.07;37.85;;;7.20;80.10;;;;;;5037686;28;20458;-77
2021/11/24 06:14:55;;;;;;;98.28;36.70;;;7.20;80.60;;;;;;5042003;28;20415;-77
2021/11/24 06:17:21;;;;;;;91.83;35.93;;;7.20;80.10;;;;;;5035929;28;20378;-78
2021/11/24 06:19:46;;;;;;;106.70;38.00;;;7.20;79.70;;;;;;5039254;28;20468;-79
2021/11/24 06:22:12;;;;;;;96.50;36.50;;;7.20;79.80;;;;;;5035224;28;20387;-78
2021/11/24 06:24:38;;;;;;;97.60;35.70;;;7.20;78.80;;;;;;5042668;28;20939;-78
2021/11/24 06:27:04;;;;;;;90.93;35.08;;;7.20;78.70;;;;;;5046385;28;20449;-79
2021/11/24 06:29:30;;;;;;;94.53;39.83;;;7.20;79.50;;;;;;5039245;28;20387;-79
2021/11/24 06:31:55;;;;;;;98.33;36.10;;;7.20;80.00;;;;;;5040114;28;20403;-79
2021/11/24 06:34:21;;;;;;;95.33;35.60;;;7.20;80.20;;;;;;5038720;28;20428;-78
2021/11/24 06:36:47;;;;;;;99.03;35.80;;;7.20;79.90;;;;;;5044703;28;20405;-77
2021/11/24 06:39:13;;;;;;;98.50;36.50;;;7.10;79.60;;;;;;5035447;28;20383;-79
2021/11/24 06:41:38;;;;;;;93.07;33.95;;;7.10;80.10;;;;;;5036807;28;20744;-80
2021/11/24 06:44:04;;;;;;;89.20;35.07;;;7.20;80.70;;;;;;5038479;28;20398;-80
2021/11/24 06:46:30;;;;;;;106.60;35.20;;;7.30;79.50;;;;;;5033961;28;20494;-77
2021/11/24 06:48:55;;;;;;;87.70;34.47;;;7.30;79.10;;;;;;5033030;28;20391;-78
2021/11/24 06:51:21;;;;;;;91.87;34.03;;;7.30;80.00;;;;;;5041366;28;20378;-78
2021/11/24 06:53:47;;;;;;;87.37;33.93;;;7.30;80.40;;;;;;5047344;28;20462;-78
2021/11/24 06:56:12;;;;;;;97.75;35.33;;;7.30;80.30;;;;;;5047028;28;20478;-78
2021/11/24 06:58:38;;;;;;;87.05;33.88;;;7.30;80.80;;;;;;5045273;28;20407;-78
2021/11/24 07:01:04;;;;;;;85.75;33.60;;;7.40;79.00;;;;;;5042006;28;20406;-77
2021/11/24 07:03:30;;;;;;;85.37;33.97;;;7.50;77.50;;;;;;5043434;28;20986;-79
2021/11/24 07:05:56;;;;;;;105.03;36.00;;;7.50;76.60;;;;;;5051475;28;20399;-78
2021/11/24 07:08:22;;;;;;;90.50;35.05;;;7.50;77.20;;;;;;5036305;28;20419;-77
2021/11/24 07:10:48;;;;;;;89.65;34.45;;;7.50;77.70;;;;;;5038610;28;20477;-78
2021/11/24 07:13:14;;;;;;;103.80;37.85;;;7.50;78.80;;;;;;5039602;28;20434;-78
2021/11/24 07:15:40;;;;;;;94.93;34.35;;;7.50;78.50;;;;;;5037659;28;20639;-79
2021/11/24 07:18:05;;;;;;;102.13;36.60;;;7.40;78.90;;;;;;5037403;28;20717;-78
2021/11/24 07:20:31;;;;;;;101.13;36.70;;;7.50;78.60;;;;;;5039007;28;20748;-78
2021/11/24 07:22:57;;;;;;;103.93;35.10;;;7.40;78.70;;;;;;5039218;28;20399;-80
2021/11/24 07:25:22;;;;;;;103.80;35.50;;;7.40;78.80;;;;;;5042559;28;20419;-80
2021/11/24 07:27:48;;;;;;;98.57;36.17;;;7.40;78.90;;;;;;5038262;28;20498;-77
2021/11/24 07:30:17;;;;;;;95.80;37.17;;;7.40;79.20;;;;;;5034815;28;20409;-76
2021/11/24 07:32:42;;;;;;;99.40;37.35;;;7.40;79.50;;;;;;5031170;28;20405;-78
2021/11/24 07:35:08;;;;;;;100.30;36.03;;;7.40;80.20;;;;;;5032671;28;20912;-76
2021/11/24 07:37:34;;;;;;;93.53;35.75;;;7.40;80.70;;;;;;5032340;28;20403;-76
2021/11/24 07:39:59;;;;;;;108.55;36.38;;;7.50;81.10;;;;;;5035582;28;20890;-77
2021/11/24 07:42:25;;;;;;;106.30;37.25;;;7.60;79.90;;;;;;5052281;28;20397;-76
2021/11/24 07:44:51;;;;;;;97.50;34.58;;;7.60;78.70;;;;;;5056042;28;20403;-77
2021/11/24 07:47:16;;;;;;;94.93;36.03;;;7.60;77.80;;;;;;5041388;28;20494;-77
2021/11/24 07:49:42;;;;;;;114.28;37.00;;;7.70;77.90;;;;;;5034416;28;20482;-77
2021/11/24 07:52:07;;;;;;;93.55;34.15;;;7.70;78.00;;;;;;5036378;28;20391;-78
2021/11/24 07:54:33;;;;;;;90.47;33.50;;;7.70;78.40;;;;;;5037268;28;20419;-76
2021/11/24 07:56:59;;;;;;;99.00;34.33;;;7.70;78.30;;;;;;5036230;28;20458;-76
2021/11/24 07:59:24;;;;;;;89.93;33.20;;;7.80;76.30;;;;;;5040198;28;20384;-77
2021/11/24 08:01:50;;;;;;;87.63;32.93;;;7.80;75.50;;;;;;5046071;28;20617;-77
2021/11/24 08:04:17;;;;;;;87.57;32.30;;;7.80;74.50;;;;;;5048792;28;20536;-76
2021/11/24 08:06:43;;;;;;;93.78;32.70;;;8.00;71.60;;;;;;5027642;28;20425;-76
2021/11/24 08:09:09;;;;;;;81.70;33.58;;;8.00;72.00;;;;;;5035381;28;20506;-76
2021/11/24 08:11:34;;;;;;;96.95;32.78;;;8.00;72.30;;;;;;5034818;28;20438;-76
2021/11/24 08:14:00;;;;;;;93.63;34.10;;;7.90;72.80;;;;;;5036821;28;20904;-76
2021/11/24 08:16:26;;;;;;;99.60;34.07;;;7.90;74.00;;;;;;5034688;28;20395;-77
2021/11/24 08:18:52;;;;;;;91.38;34.90;;;7.90;74.20;;;;;;5020450;28;20410;-75
2021/11/24 08:21:17;;;;;;;93.28;34.40;;;7.90;74.20;;;;;;5031726;28;20407;-74
2021/11/24 08:23:43;;;;;;;89.82;33.40;;;7.90;74.80;;;;;;5028076;28;20407;-76
2021/11/24 08:26:09;;;;;;;85.05;33.53;;;7.90;75.20;;;;;;5029439;28;20421;-75
2021/11/24 08:28:35;;;;;;;94.35;33.92;;;7.90;75.40;;;;;;5030185;28;20415;-76
2021/11/24 08:31:00;;;;;;;95.13;34.77;;;8.00;76.20;;;;;;5033487;28;20475;-76
2021/11/24 08:33:26;;;;;;;86.23;33.80;;;8.00;74.60;;;;;;5034610;28;20411;-74
2021/11/24 08:35:51;;;;;;;93.93;32.43;;;8.00;74.70;;;;;;5035165;28;20753;-74
2021/11/24 08:38:18;;;;;;;103.10;33.60;;;8.10;75.00;;;;;;5029370;28;20838;-75
2021/11/24 08:40:43;;;;;;;91.38;31.30;;;8.10;74.40;;;;;;5038099;28;20495;-75
2021/11/24 08:43:09;;;;;;;86.85;31.45;;;8.10;74.60;;;;;;5036989;28;20426;-75
2021/11/24 08:45:35;;;;;;;82.27;32.00;;;8.20;74.30;;;;;;5040691;28;20407;-79
2021/11/24 08:48:05;;;;;;;74.78;28.80;;;8.30;72.80;;;;;;5036901;28;20438;-75
2021/11/24 08:50:32;;;;;;;76.45;29.75;;;8.40;71.90;;;;;;5035086;28;20393;-76
2021/11/24 08:52:58;;;;;;;78.88;29.63;;;8.40;69.50;;;;;;5032243;28;20398;-74
2021/11/24 08:55:24;;;;;;;82.25;29.70;;;8.50;68.60;;;;;;5029917;28;20411;-76
2021/11/24 08:57:50;;;;;;;78.95;29.05;;;8.50;68.60;;;;;;5031093;28;20511;-74
2021/11/24 09:00:18;;;;;;;74.20;27.88;;;8.60;68.10;;;;;;5031888;28;20387;-75
2021/11/24 09:02:45;;;;;;;81.05;28.20;;;8.80;66.30;;;;;;5032159;28;20379;-75
2021/11/24 09:05:12;;;;;;;71.28;28.85;;;8.90;63.90;;;;;;5031743;28;20460;-75
2021/11/24 09:07:39;;;;;;;80.07;29.85;;;9.00;61.90;;;;;;5032113;28;20486;-74
2021/11/24 09:10:06;;;;;;;86.90;30.30;;;8.90;62.40;;;;;;5031466;28;20411;-74
2021/11/24 09:12:32;;;;;;;86.75;31.10;;;8.80;63.40;;;;;;5032529;28;20397;-74
2021/11/24 09:14:58;;;;;;;89.45;30.75;;;8.80;63.20;;;;;;5031403;28;20816;-74
2021/11/24 09:17:24;;;;;;;78.73;29.90;;;9.00;62.20;;;;;;5023338;28;20379;-74
2021/11/24 09:19:50;;;;;;;78.63;30.25;;;9.00;62.20;;;;;;5025074;28;20499;-72
2021/11/24 09:22:17;;;;;;;83.07;30.50;;;9.00;62.40;;;;;;5028847;28;20486;-73
2021/11/24 09:24:42;;;;;;;88.85;31.40;;;9.00;62.80;;;;;;5026109;28;20463;-73
2021/11/24 09:27:16;;;;;;;83.07;30.87;;;9.00;61.60;;;;;;5030866;28;20398;-74
2021/11/24 09:29:43;;;;;;;91.07;31.60;;;9.10;60.30;;;;;;5030655;28;20407;-74
2021/11/24 09:32:10;;;;;;;78.35;31.20;;;9.10;60.40;;;;;;5021299;28;20415;-73
2021/11/24 09:34:36;;;;;;;86.22;32.22;;;9.10;59.70;;;;;;5026575;28;20407;-74
2021/11/24 09:37:01;;;;;;;91.32;31.02;;;9.10;59.60;;;;;;5028711;28;20391;-73
2021/11/24 09:39:27;;;;;;;79.17;30.00;;;9.10;59.30;;;;;;5028996;28;20552;-72
2021/11/24 09:41:57;;;;;;;86.40;30.27;;;9.20;59.00;;;;;;5030855;28;20402;-73
2021/11/24 09:44:23;;;;;;;88.55;31.38;;;9.20;58.20;;;;;;5031418;28;20398;-72
2021/11/24 09:46:50;;;;;;;79.28;31.00;;;9.20;58.40;;;;;;5027331;28;20966;-73
2021/11/24 09:49:17;;;;;;;79.17;30.23;;;9.20;58.50;;;;;;5028477;28;20943;-73
2021/11/24 09:51:44;;;;;;;80.70;30.67;;;9.20;59.10;;;;;;5029081;28;20403;-75
2021/11/24 09:54:12;;;;;;;71.13;29.55;;;9.40;58.40;;;;;;5030084;28;20407;-73
2021/11/24 09:56:40;;;;;;;79.47;30.65;;;9.50;57.10;;;;;;5030898;28;20395;-75
2021/11/24 09:59:07;;;;;;;82.45;31.50;;;9.50;55.90;;;;;;5030949;28;20402;-72
2021/11/24 10:01:33;;;;;;;79.03;30.10;;;9.50;56.20;;;;;;5029511;28;20391;-75
2021/11/24 10:03:59;;;;;;;75.63;30.60;;;9.70;54.80;;;;;;5042801;28;20552;-74
2021/11/24 10:06:25;;;;;;;79.38;29.73;;;9.90;52.20;;;;;;5030142;28;20476;-74
2021/11/24 10:08:51;;;;;;;75.03;30.00;;;9.90;52.80;;;;;;5015642;28;20422;-75
2021/11/24 10:11:17;;;;;;;86.55;30.90;;;9.80;53.50;;;;;;5029593;28;20449;-75
2021/11/24 10:13:45;;;;;;;79.53;30.80;;;9.90;53.10;;;;;;5031075;28;20383;-74
2021/11/24 10:16:26;;;;;;;84.05;30.40;;;10.10;52.90;;;;;;5032936;28;20410;-74
2021/11/24 10:18:57;;;;;;;84.35;30.85;;;10.00;51.20;;;;;;5010211;28;20455;-74
2021/11/24 10:21:23;;;;;;;73.88;30.05;;;10.00;52.10;;;;;;5022951;28;20452;-75
2021/11/24 10:23:49;;;;;;;71.05;28.90;;;10.00;51.30;;;;;;5031597;28;20379;-73
2021/11/24 10:26:29;;;;;;;60.13;26.80;;;10.10;51.60;;;;;;5031725;28;20399;-74
2021/11/24 10:29:01;;;;;;;66.07;28.98;;;10.10;50.90;;;;;;5032081;28;20395;-75
2021/11/24 10:31:46;;;;;;;76.25;29.63;;;10.10;50.00;;;;;;5031465;28;20473;-74
2021/11/24 10:34:32;;;;;;;66.93;28.77;;;10.10;49.20;;;;;;5031900;28;20383;-74
2021/11/24 10:37:05;;;;;;;59.83;27.40;;;10.00;47.70;;;;;;5031698;28;20394;-73
2021/11/24 10:39:32;;;;;;;60.53;28.02;;;10.10;48.00;;;;;;5031848;28;20384;-75
2021/11/24 10:42:13;;;;;;;60.85;27.05;;;10.10;47.40;;;;;;5025358;28;20392;-74
2021/11/24 10:44:43;;;;;;;61.00;27.40;;;10.10;47.80;;;;;;5017632;28;20507;-73
2021/11/24 10:47:09;;;;;;;60.20;26.63;;;10.20;46.90;;;;;;5015564;28;20400;-74
2021/11/24 10:49:36;;;;;;;65.75;28.10;;;10.20;46.50;;;;;;5014893;28;20455;-74
2021/11/24 10:52:17;;;;;;;59.23;27.57;;;10.20;46.20;;;;;;5015726;28;20393;-75
2021/11/24 10:54:54;;;;;;;59.47;26.27;;;10.20;45.70;;;;;;5033723;28;20908;-75
2021/11/24 10:57:20;;;;;;;54.88;24.92;;;10.20;45.30;;;;;;5034774;28;20391;-74
2021/11/24 10:59:45;;;;;;;59.27;25.17;;;10.20;45.70;;;;;;5036046;28;20744;-73
2021/11/24 11:02:16;;;;;;;56.57;25.97;;;10.30;45.60;;;;;;5035928;28;20455;-75
2021/11/24 11:04:59;;;;;;;55.97;26.70;;;10.30;45.40;;;;;;5037494;28;20414;-73
2021/11/24 11:07:26;;;;;;;53.58;25.25;;;10.30;44.50;;;;;;5036563;28;20828;-75
2021/11/24 11:10:03;;;;;;;59.55;27.30;;;10.40;44.80;;;;;;5036083;28;20903;-72
2021/11/24 11:12:30;;;;;;;60.10;27.50;;;10.60;43.60;;;;;;5032222;28;20377;-74
2021/11/24 11:15:16;;;;;;;57.17;26.23;;;10.50;43.70;;;;;;5046584;28;20490;-73
2021/11/24 11:17:52;;;;;;;67.13;26.70;;;10.50;43.80;;;;;;5043395;28;20697;-74
2021/11/24 11:20:19;;;;;;;54.50;23.77;;;10.40;43.80;;;;;;5049512;28;20391;-74
2021/11/24 11:22:44;;;;;;;55.93;25.47;;;10.40;43.50;;;;;;5045342;28;20477;-75
2021/11/24 11:25:11;;;;;;;55.10;25.17;;;10.50;43.40;;;;;;5045369;28;20482;-75
2021/11/24 11:27:39;;;;;;;53.22;24.27;;;10.50;43.60;;;;;;5033679;28;20860;-73
2021/11/24 11:30:05;;;;;;;52.28;23.92;;;10.60;42.80;;;;;;5033580;28;20395;-72
2021/11/24 11:32:31;;;;;;;53.42;25.55;;;10.50;42.40;;;;;;5033283;28;20485;-74
2021/11/24 11:34:57;;;;;;;55.00;25.98;;;10.50;42.80;;;;;;5034324;28;20900;-74
2021/11/24 11:37:23;;;;;;;51.60;24.27;;;10.50;43.30;;;;;;5034157;28;20398;-74
2021/11/24 11:39:49;;;;;;;49.13;23.83;;;10.50;43.00;;;;;;5032747;28;20406;-74
2021/11/24 11:42:16;;;;;;;48.03;24.58;;;10.50;42.20;;;;;;5031777;28;20936;-75
2021/11/24 11:44:42;;;;;;;52.72;23.80;;;10.50;42.50;;;;;;5029855;28;20431;-76
2021/11/24 11:47:08;;;;;;;56.40;24.33;;;10.50;42.80;;;;;;5028871;28;20403;-76
2021/11/24 11:49:37;;;;;;;53.78;25.15;;;10.50;42.30;;;;;;5033192;28;20860;-76
2021/11/24 11:52:09;;;;;;;48.72;23.65;;;10.60;41.90;;;;;;5025453;28;20406;-77
2021/11/24 11:54:35;;;;;;;53.25;24.67;;;10.60;41.20;;;;;;5023842;28;20473;-74
2021/11/24 11:57:04;;;;;;;59.40;22.67;;;10.60;41.10;;;;;;5027352;28;20391;-74
2021/11/24 11:59:33;;;;;;;47.95;22.80;;;10.60;40.50;;;;;;5034986;28;20736;-74
2021/11/24 12:02:01;;;;;;;48.85;22.92;;;10.50;40.90;;;;;;5033579;28;20453;-74
2021/11/24 12:04:47;;;;;;;50.92;22.85;;;10.50;40.10;;;;;;5028297;28;20404;-75
2021/11/24 12:07:19;;;;;;;47.40;22.73;;;10.50;39.70;;;;;;5031797;28;20403;-76
2021/11/24 12:09:54;;;;;;;45.28;21.55;;;10.50;39.00;;;;;;5032262;28;20387;-75
2021/11/24 12:12:33;;;;;;;52.00;22.70;;;10.50;39.50;;;;;;5031831;28;20490;-76
2021/11/24 12:15:24;;;;;;;40.65;20.60;;;10.50;39.50;;;;;;5031256;28;20884;-75
2021/11/24 12:17:59;;;;;;;40.20;19.45;;;10.60;39.20;;;;;;5027569;28;20403;-76
2021/11/24 12:20:30;;;;;;;36.13;18.60;;;10.70;38.10;;;;;;5032769;28;20413;-74
2021/11/24 12:22:59;;;;;;;37.75;19.70;;;10.70;37.40;;;;;;5031863;28;20395;-75
2021/11/24 12:25:25;;;;;;;42.10;20.75;;;10.70;37.60;;;;;;5030167;28;20956;-77
2021/11/24 12:27:55;;;;;;;43.28;20.60;;;10.70;37.90;;;;;;5033400;28;20678;-77
2021/11/24 12:30:47;;;;;;;43.20;20.08;;;10.70;38.50;;;;;;5032289;28;20414;-75
2021/11/24 12:33:18;;;;;;;33.28;17.73;;;10.60;38.00;;;;;;5029915;28;20434;-77